createdAt,value
2022-12-08T00:01:06.578Z,2.28
2022-12-08T00:03:33.869Z,2.29
2022-12-08T00:06:21.721Z,2.30
2022-12-08T00:09:07.355Z,2.17
2022-12-08T00:11:34.578Z,2.16
2022-12-08T00:14:01.797Z,2.16
2022-12-08T00:16:28.897Z,2.13
2022-12-08T00:18:55.770Z,2.07
2022-12-08T00:21:22.595Z,2.00
2022-12-08T00:23:49.480Z,2.01
2022-12-08T00:26:16.366Z,2.05
2022-12-08T00:28:43.570Z,2.05
2022-12-08T00:31:11.940Z,1.96
2022-12-08T00:33:38.809Z,1.86
2022-12-08T00:36:07.618Z,1.81
2022-12-08T00:38:34.408Z,1.60
2022-12-08T00:41:01.199Z,1.74
2022-12-08T00:43:28.083Z,1.69
2022-12-08T00:45:54.920Z,1.69
2022-12-08T00:48:21.820Z,1.67
2022-12-08T00:50:48.564Z,1.67
2022-12-08T00:53:15.398Z,1.69
2022-12-08T00:55:43.410Z,1.77
2022-12-08T00:58:10.237Z,1.78
2022-12-08T01:00:36.924Z,1.76
2022-12-08T01:03:03.864Z,1.74
2022-12-08T01:05:30.688Z,1.62
2022-12-08T01:07:57.481Z,1.63
2022-12-08T01:10:24.436Z,1.77
2022-12-08T01:12:51.202Z,1.86
2022-12-08T01:15:18.035Z,1.90
2022-12-08T01:17:44.824Z,1.83
2022-12-08T01:20:12.104Z,1.93
2022-12-08T01:22:38.967Z,1.88
2022-12-08T01:25:06.005Z,1.98
2022-12-08T01:27:32.804Z,1.97
2022-12-08T01:29:59.642Z,2.01
2022-12-08T01:32:26.446Z,1.99
2022-12-08T01:34:53.242Z,2.06
2022-12-08T01:37:20.127Z,2.07
2022-12-08T01:39:46.931Z,2.13
2022-12-08T01:42:23.568Z,2.11
2022-12-08T01:44:55.845Z,2.14
2022-12-08T01:47:26.562Z,2.07
2022-12-08T01:49:53.658Z,2.13
2022-12-08T01:52:36.970Z,2.16
2022-12-08T01:55:12.518Z,2.14
2022-12-08T01:57:47.046Z,2.11
2022-12-08T02:00:16.765Z,2.10
2022-12-08T02:02:58.491Z,2.11
2022-12-08T02:05:28.607Z,2.17
2022-12-08T02:07:57.563Z,2.13
2022-12-08T02:10:29.195Z,2.15
2022-12-08T02:12:59.043Z,2.14
2022-12-08T02:15:46.177Z,2.12
2022-12-08T02:18:28.020Z,2.03
2022-12-08T02:21:02.804Z,1.99
2022-12-08T02:23:54.519Z,1.87
2022-12-08T02:27:07.859Z,1.88
2022-12-08T02:29:59.488Z,1.84
2022-12-08T02:32:45.723Z,1.93
2022-12-08T02:35:25.762Z,1.92
2022-12-08T02:38:08.929Z,1.93
2022-12-08T02:40:35.605Z,1.94
2022-12-08T02:43:37.448Z,1.92
2022-12-08T02:46:31.296Z,1.88
2022-12-08T02:48:59.323Z,1.88
2022-12-08T02:51:26.437Z,1.99
2022-12-08T02:53:53.539Z,1.89
2022-12-08T02:57:07.836Z,1.85
2022-12-08T03:00:09.316Z,1.94
2022-12-08T03:02:50.371Z,1.86
2022-12-08T03:05:23.363Z,2.00
2022-12-08T03:08:06.259Z,1.87
2022-12-08T03:10:43.597Z,1.86
2022-12-08T03:13:14.918Z,1.78
2022-12-08T03:15:46.320Z,1.90
2022-12-08T03:18:16.698Z,1.91
2022-12-08T03:20:46.798Z,1.90
2022-12-08T03:23:16.042Z,1.80
2022-12-08T03:26:09.140Z,1.83
2022-12-08T03:28:36.002Z,1.73
2022-12-08T03:31:07.759Z,1.63
2022-12-08T03:33:40.116Z,1.65
2022-12-08T03:36:09.844Z,1.60
2022-12-08T03:38:42.888Z,1.65
2022-12-08T03:41:19.700Z,1.59
2022-12-08T03:43:54.459Z,1.58
2022-12-08T03:48:50.283Z,1.60
2022-12-08T03:51:17.357Z,1.67
2022-12-08T03:53:44.448Z,1.63
2022-12-08T03:56:32.039Z,1.67
2022-12-08T03:58:59.563Z,1.68
2022-12-08T04:01:27.555Z,1.67
2022-12-08T04:03:54.879Z,1.65
2022-12-08T04:06:22.196Z,1.62
2022-12-08T04:08:50.277Z,1.56
2022-12-08T04:11:17.359Z,1.50
2022-12-08T04:13:44.539Z,1.58
2022-12-08T04:16:24.116Z,1.45
2022-12-08T04:18:51.449Z,1.36
2022-12-08T04:21:18.569Z,1.39
2022-12-08T04:23:46.289Z,1.37
2022-12-08T04:26:14.036Z,1.25
2022-12-08T04:28:40.818Z,1.31
2022-12-08T04:31:08.152Z,1.35
2022-12-08T04:33:35.458Z,1.39
2022-12-08T04:36:04.408Z,1.38
2022-12-08T04:38:31.538Z,1.38
2022-12-08T04:40:58.338Z,1.23
2022-12-08T04:43:25.204Z,1.27
2022-12-08T04:45:52.121Z,1.23
2022-12-08T04:48:19.208Z,1.31
2022-12-08T04:50:46.477Z,1.19
2022-12-08T04:53:13.682Z,1.07
2022-12-08T04:55:45.516Z,1.21
2022-12-08T04:58:14.795Z,1.29
2022-12-08T05:00:42.438Z,1.29
2022-12-08T05:03:09.997Z,1.26
2022-12-08T05:05:36.956Z,1.15
2022-12-08T05:08:06.139Z,1.18
2022-12-08T05:10:33.485Z,1.09
2022-12-08T05:13:00.724Z,1.01
2022-12-08T05:15:27.727Z,1.00
2022-12-08T05:17:55.173Z,1.04
2022-12-08T05:20:22.276Z,1.12
2022-12-08T05:22:49.235Z,1.12
2022-12-08T05:25:16.167Z,1.15
2022-12-08T05:27:43.584Z,1.16
2022-12-08T05:30:10.485Z,1.12
2022-12-08T05:32:37.288Z,1.28
2022-12-08T05:35:04.258Z,1.28
2022-12-08T05:37:31.082Z,1.36
2022-12-08T05:39:57.843Z,1.42
2022-12-08T05:42:25.213Z,1.49
2022-12-08T05:44:52.537Z,1.38
2022-12-08T05:47:19.765Z,1.49
2022-12-08T05:49:46.724Z,1.54
2022-12-08T05:52:13.443Z,1.52
2022-12-08T05:54:40.155Z,1.53
2022-12-08T05:57:07.017Z,1.49
2022-12-08T05:59:33.884Z,1.51
2022-12-08T06:02:01.000Z,1.46
2022-12-08T06:04:28.003Z,1.39
2022-12-08T06:06:54.883Z,1.45
2022-12-08T06:16:43.304Z,1.38
2022-12-08T06:19:10.151Z,1.33
2022-12-08T06:21:36.946Z,1.30
2022-12-08T06:24:03.798Z,1.46
2022-12-08T06:26:30.585Z,1.42
2022-12-08T06:28:57.356Z,1.41
2022-12-08T06:31:26.458Z,1.48
2022-12-08T06:33:55.089Z,1.48
2022-12-08T06:36:24.674Z,1.50
2022-12-08T06:38:52.327Z,1.41
2022-12-08T06:41:19.319Z,1.48
2022-12-08T06:43:46.313Z,1.45
2022-12-08T06:46:17.702Z,1.38
2022-12-08T06:48:44.912Z,1.42
2022-12-08T06:51:17.913Z,1.35
2022-12-08T06:53:45.752Z,1.43
2022-12-08T06:56:14.194Z,1.53
2022-12-08T06:58:40.952Z,1.57
2022-12-08T07:01:13.019Z,1.56
2022-12-08T07:03:41.072Z,1.56
2022-12-08T07:06:08.196Z,1.63
2022-12-08T07:08:35.563Z,1.58
2022-12-08T07:11:18.017Z,1.59
2022-12-08T07:13:47.836Z,1.68
2022-12-08T07:16:14.747Z,1.67
2022-12-08T07:18:43.131Z,1.53
2022-12-08T07:21:12.430Z,1.60
2022-12-08T07:23:39.589Z,1.72
2022-12-08T07:26:08.787Z,1.64
2022-12-08T07:28:38.718Z,1.66
2022-12-08T07:31:06.941Z,1.62
2022-12-08T07:33:36.265Z,1.62
2022-12-08T07:36:05.425Z,1.54
2022-12-08T07:38:32.452Z,1.54
2022-12-08T07:41:00.155Z,1.52
2022-12-08T07:43:27.117Z,1.55
2022-12-08T07:45:54.161Z,1.52
2022-12-08T07:48:21.080Z,1.58
2022-12-08T07:50:48.007Z,1.38
2022-12-08T07:53:14.995Z,1.52
2022-12-08T07:55:43.081Z,1.52
2022-12-08T07:58:10.832Z,1.52
2022-12-08T08:00:38.022Z,1.54
2022-12-08T08:03:04.930Z,1.44
2022-12-08T08:05:31.868Z,1.50
2022-12-08T08:07:58.746Z,1.51
2022-12-08T08:10:25.798Z,1.51
2022-12-08T08:12:52.674Z,1.56
2022-12-08T08:15:21.291Z,1.52
2022-12-08T08:17:53.585Z,1.72
2022-12-08T08:20:21.385Z,1.69
2022-12-08T08:22:49.945Z,1.72
2022-12-08T08:25:18.306Z,1.62
2022-12-08T08:27:45.546Z,1.69
2022-12-08T08:30:20.101Z,1.70
2022-12-08T08:32:47.626Z,1.74
2022-12-08T08:35:14.711Z,1.78
2022-12-08T08:37:45.764Z,1.74
2022-12-08T08:40:15.705Z,1.86
2022-12-08T08:42:42.546Z,1.88
2022-12-08T08:45:09.754Z,1.91
2022-12-08T08:47:36.638Z,1.93
2022-12-08T08:50:04.319Z,2.01
2022-12-08T08:52:31.345Z,2.11
2022-12-08T08:54:58.089Z,2.26
2022-12-08T08:57:26.054Z,2.38
2022-12-08T08:59:53.673Z,2.65
2022-12-08T09:02:21.384Z,2.54
2022-12-08T09:04:48.532Z,2.51
2022-12-08T09:07:16.334Z,2.62
2022-12-08T09:09:43.316Z,2.74
2022-12-08T09:12:11.145Z,2.64
2022-12-08T09:14:38.073Z,2.34
2022-12-08T09:17:05.507Z,2.67
2022-12-08T09:19:32.489Z,2.69
2022-12-08T09:21:59.267Z,2.87
2022-12-08T09:24:26.519Z,2.95
2022-12-08T09:26:53.558Z,3.01
